Time;durP1;ratioP1;P1;durP2;ratioP2;P2;SDS_P1;SDS_P2;PMS_P1;PMS_P2;Temp;Humidity;BMP_temperature;BMP_pressure;BME280_temperature;BME280_humidity;BME280_pressure;Samples;Min_cycle;Max_cycle;Signal;HPM_P1;HPM_P2
2021/05/13 00:01:49;;;;;;;12.40;10.25;;;13.40;88.40;;;12.49;80.59;99904.31;5011537;28;20128;-77
2021/05/13 00:04:29;;;;;;;14.75;10.80;;;13.30;88.40;;;12.47;80.59;99905.56;5012021;28;20056;-79
2021/05/13 00:07:04;;;;;;;12.65;10.20;;;13.30;88.40;;;12.42;80.48;99902.66;5011894;28;20072;-80
2021/05/13 00:09:44;;;;;;;15.00;11.32;;;13.30;88.30;;;12.38;80.12;99899.50;5011865;28;20042;-79
2021/05/13 00:12:38;;;;;;;16.33;10.73;;;13.20;88.10;;;12.36;80.52;99907.06;5011748;28;20045;-79
2021/05/13 00:15:21;;;;;;;16.85;10.88;;;13.20;88.30;;;12.38;80.61;99901.41;5011614;28;20137;-79
2021/05/13 00:17:57;;;;;;;14.77;10.10;;;13.20;88.30;;;12.32;80.18;99900.38;5011229;28;20042;-79
2021/05/13 00:20:40;;;;;;;15.40;11.52;;;13.10;88.30;;;12.30;80.23;99908.75;5011341;28;20057;-79
2021/05/13 00:23:18;;;;;;;13.48;10.88;;;13.10;88.30;;;12.24;80.23;99892.38;5011035;28;20104;-79
2021/05/13 00:25:57;;;;;;;16.05;11.43;;;13.10;88.30;;;12.23;80.24;99896.16;5011293;28;20104;-79
2021/05/13 00:28:35;;;;;;;15.30;11.77;;;13.00;88.20;;;12.19;80.11;99903.09;5011227;28;20066;-80
2021/05/13 00:31:13;;;;;;;16.42;12.20;;;13.00;88.20;;;12.16;80.33;99896.16;5010985;28;20052;-80
2021/05/13 00:33:51;;;;;;;16.15;12.25;;;12.90;88.20;;;12.14;80.53;99892.81;4992837;28;20057;-80
2021/05/13 00:36:34;;;;;;;15.15;11.70;;;12.90;88.20;;;12.13;80.75;99886.50;5010858;28;20049;-79
2021/05/13 00:39:11;;;;;;;16.83;12.63;;;12.90;88.20;;;12.15;80.56;99888.19;5021012;28;20049;-79
2021/05/13 00:41:46;;;;;;;15.82;11.98;;;12.90;88.40;;;12.12;80.43;99886.72;5030562;28;20485;-80
2021/05/13 00:44:19;;;;;;;16.25;12.30;;;12.90;88.30;;;12.11;80.88;99888.63;5030819;28;20045;-79
2021/05/13 00:46:57;;;;;;;15.90;12.25;;;12.90;88.30;;;12.09;80.44;99888.00;5029268;28;20041;-79
2021/05/13 00:49:38;;;;;;;16.67;12.15;;;12.90;88.40;;;12.08;80.36;99897.22;5030452;28;20056;-79
2021/05/13 00:52:25;;;;;;;17.85;13.43;;;12.80;88.20;;;12.08;80.70;99896.38;5030349;28;20050;-79
2021/05/13 00:55:03;;;;;;;16.08;12.98;;;12.80;88.30;;;12.06;80.34;99890.28;5030462;28;20498;-79
2021/05/13 00:57:45;;;;;;;17.33;13.80;;;12.80;88.30;;;12.04;80.39;99897.84;5030165;28;20991;-79
2021/05/13 01:00:37;;;;;;;16.10;12.30;;;12.80;88.40;;;12.03;80.63;99886.09;5012692;28;20123;-79
2021/05/13 01:03:15;;;;;;;15.55;12.80;;;12.80;88.50;;;12.01;80.80;99880.00;5029705;28;20041;-79
2021/05/13 01:05:51;;;;;;;15.13;12.15;;;12.80;88.70;;;12.03;80.51;99890.69;5030118;28;20041;-79
2021/05/13 01:08:30;;;;;;;14.93;12.55;;;12.80;88.80;;;12.02;80.98;99884.41;5012294;28;20053;-79
2021/05/13 01:11:03;;;;;;;15.95;13.90;;;12.80;89.20;;;12.03;80.88;99886.09;5029858;28;20102;-79
2021/05/13 01:13:49;;;;;;;17.15;13.82;;;12.80;89.10;;;12.04;81.05;99885.03;5029524;28;20069;-79
2021/05/13 01:19:18;;;;;;;19.27;13.40;;;12.80;89.30;;;12.04;81.42;99881.47;5029762;28;20072;-82
2021/05/13 01:21:57;;;;;;;16.42;12.70;;;12.80;89.50;;;12.03;81.13;99875.19;5029345;28;20049;-81
2021/05/13 01:24:30;;;;;;;15.27;12.48;;;12.80;89.40;;;12.02;81.07;99875.41;5029742;28;20038;-82
2021/05/13 01:27:05;;;;;;;16.55;12.23;;;12.80;89.30;;;11.98;81.08;99874.97;5029203;28;20052;-81
2021/05/13 01:29:46;;;;;;;15.77;13.10;;;12.80;89.00;;;11.96;80.85;99876.25;5028298;28;20780;-81
2021/05/13 01:32:25;;;;;;;18.02;12.93;;;12.80;89.00;;;11.95;80.84;99872.66;5029154;28;20045;-82
2021/05/13 01:35:00;;;;;;;15.75;12.07;;;12.70;89.20;;;11.94;80.30;99871.00;5029296;28;20429;-82
2021/05/13 01:37:39;;;;;;;15.90;11.07;;;12.70;88.70;;;11.92;80.68;99868.47;5029103;28;20080;-82
2021/05/13 01:40:18;;;;;;;14.52;11.35;;;12.70;88.90;;;11.89;80.34;99863.44;5029222;28;20072;-82
2021/05/13 01:42:58;;;;;;;12.80;10.38;;;12.70;88.50;;;11.87;80.11;99872.84;5028833;28;20049;-82
2021/05/13 01:45:36;;;;;;;14.48;11.27;;;12.60;88.40;;;11.84;80.11;99865.06;5009348;28;20096;-82
2021/05/13 01:48:12;;;;;;;15.02;12.13;;;12.60;88.20;;;11.83;79.95;99861.50;5009097;28;20963;-81
2021/05/13 01:50:52;;;;;;;16.20;12.00;;;12.60;88.40;;;11.81;79.83;99860.88;5008557;28;20245;-81
2021/05/13 01:53:32;;;;;;;17.10;12.48;;;12.60;88.30;;;11.78;79.84;99855.00;5023446;28;20505;-82
2021/05/13 01:56:11;;;;;;;15.00;11.27;;;12.50;88.20;;;11.74;79.74;99860.03;5029094;28;20053;-82
2021/05/13 01:58:49;;;;;;;14.80;11.70;;;12.50;88.20;;;11.69;79.49;99863.41;5028999;28;20041;-82
2021/05/13 02:01:22;;;;;;;14.45;12.13;;;12.50;88.00;;;11.66;79.74;99852.91;5022696;28;20037;-82
2021/05/13 02:04:02;;;;;;;14.77;11.80;;;12.40;87.80;;;11.65;79.92;99851.25;5008852;28;20081;-82
2021/05/13 02:06:40;;;;;;;14.45;11.48;;;12.40;88.20;;;11.63;79.84;99858.78;5008984;28;20045;-82
2021/05/13 02:09:16;;;;;;;13.98;11.10;;;12.40;88.00;;;11.62;79.49;99851.63;5009051;28;20417;-81
2021/05/13 02:11:54;;;;;;;14.43;11.95;;;12.40;88.20;;;11.61;79.98;99847.22;5008688;28;20053;-82
2021/05/13 02:14:29;;;;;;;15.18;12.13;;;12.30;88.50;;;11.59;79.99;99845.75;5008929;28;20065;-82
2021/05/13 02:17:04;;;;;;;13.93;11.52;;;12.30;88.40;;;11.57;79.60;99842.41;5008515;28;20052;-81
2021/05/13 02:19:42;;;;;;;14.77;11.13;;;12.30;88.30;;;11.54;79.55;99833.59;5008887;28;20077;-82
2021/05/13 02:22:17;;;;;;;13.18;10.75;;;12.30;88.10;;;11.49;79.25;99836.09;4990573;28;20724;-82
2021/05/13 02:24:56;;;;;;;13.52;11.52;;;12.20;87.90;;;11.50;79.50;99826.06;5007239;28;20498;-81
2021/05/13 02:27:34;;;;;;;17.83;11.75;;;12.20;88.00;;;11.49;79.43;99827.94;5008649;28;20050;-81
2021/05/13 02:30:08;;;;;;;13.25;11.05;;;12.20;87.90;;;11.48;78.87;99819.97;5008840;28;20076;-82
2021/05/13 02:32:43;;;;;;;17.08;11.95;;;12.20;87.90;;;11.44;78.96;99825.00;5008441;28;20050;-81
2021/05/13 02:35:23;;;;;;;13.65;10.98;;;12.10;87.80;;;11.43;79.06;99819.75;5008863;28;20050;-82
2021/05/13 02:37:58;;;;;;;14.23;11.02;;;12.10;87.80;;;11.41;78.98;99819.13;5008665;28;20054;-82
2021/05/13 02:40:38;;;;;;;13.05;10.85;;;12.10;87.80;;;11.36;78.87;99822.47;5008837;28;20049;-82
2021/05/13 02:43:12;;;;;;;15.98;11.43;;;12.00;87.60;;;11.32;78.69;99813.84;5008260;28;20053;-82
2021/05/13 02:45:47;;;;;;;15.52;11.82;;;12.00;87.70;;;11.29;78.66;99813.44;5008650;28;20050;-81
2021/05/13 02:48:22;;;;;;;16.40;12.38;;;12.00;87.70;;;11.27;78.88;99805.50;5008475;28;20069;-81
2021/05/13 02:51:01;;;;;;;15.90;11.77;;;11.90;87.70;;;11.27;78.85;99812.78;5008617;28;20041;-82
2021/05/13 02:53:36;;;;;;;14.68;11.52;;;11.90;87.70;;;11.26;78.90;99813.88;5008279;28;20038;-82
2021/05/13 02:56:09;;;;;;;14.40;11.48;;;11.90;87.70;;;11.25;78.72;99814.91;5009161;28;20045;-81
2021/05/13 02:58:46;;;;;;;16.23;12.27;;;11.90;87.70;;;11.20;78.64;99815.53;5008690;28;20122;-82
2021/05/13 03:01:25;;;;;;;16.50;12.10;;;11.90;87.60;;;11.19;78.88;99819.28;5009016;28;20469;-82
2021/05/13 03:04:04;;;;;;;15.43;12.10;;;11.90;87.70;;;11.16;78.52;99825.16;5013683;28;20151;-82
2021/05/13 03:06:42;;;;;;;15.85;12.27;;;11.80;87.60;;;11.12;78.35;99819.28;5013373;28;20069;-82
2021/05/13 03:09:18;;;;;;;15.02;12.57;;;11.80;87.60;;;11.09;77.94;99835.19;5011314;28;20099;-82
2021/05/13 03:11:57;;;;;;;15.38;12.27;;;11.80;87.30;;;11.03;77.83;99825.13;5012671;28;20050;-82
2021/05/13 03:14:37;;;;;;;15.75;12.77;;;11.70;87.10;;;10.98;78.09;99835.78;5013062;28;20057;-81
2021/05/13 03:17:09;;;;;;;17.50;12.15;;;11.70;87.30;;;10.97;78.18;99840.38;5012582;28;20046;-81
2021/05/13 03:19:47;;;;;;;14.82;11.85;;;11.70;87.50;;;10.94;78.07;99838.88;5012355;28;20050;-82
2021/05/13 03:22:26;;;;;;;15.93;12.27;;;11.60;87.50;;;10.94;78.12;99838.88;5012208;28;20454;-82
2021/05/13 03:25:04;;;;;;;14.43;11.23;;;11.60;87.50;;;10.92;77.95;99835.53;5012315;28;20045;-81
2021/05/13 03:27:49;;;;;;;18.83;11.50;;;11.60;87.30;;;10.91;78.16;99831.16;5011999;28;20103;-81
2021/05/13 03:30:25;;;;;;;14.10;10.88;;;11.60;87.50;;;10.91;77.69;99828.44;5012041;28;20490;-81
2021/05/13 03:33:02;;;;;;;13.98;11.32;;;11.50;87.20;;;10.88;77.64;99828.81;5011804;28;20041;-82
2021/05/13 03:35:38;;;;;;;14.88;11.30;;;11.50;87.30;;;10.85;77.83;99826.53;5012200;28;20050;-82
2021/05/13 03:38:18;;;;;;;12.80;10.55;;;11.50;87.30;;;10.82;77.67;99826.91;5012112;28;20054;-81
2021/05/13 03:40:53;;;;;;;15.63;11.05;;;11.40;87.10;;;10.78;77.72;99822.94;5012228;28;20049;-82
2021/05/13 03:43:32;;;;;;;14.40;10.90;;;11.40;87.10;;;10.78;77.87;99819.38;5011691;28;20038;-82
2021/05/13 03:46:05;;;;;;;15.20;11.27;;;11.40;87.30;;;10.76;77.77;99806.81;5012128;28;20414;-82
2021/05/13 03:48:43;;;;;;;20.27;11.40;;;11.40;87.20;;;10.74;77.58;99808.06;5011790;28;20050;-81
2021/05/13 03:51:21;;;;;;;17.25;12.05;;;11.30;87.30;;;10.71;77.65;99805.72;5012110;28;20141;-81
2021/05/13 03:53:59;;;;;;;14.48;11.50;;;11.30;87.30;;;10.68;77.51;99800.69;5009419;28;20498;-81
2021/05/13 03:56:34;;;;;;;15.73;11.05;;;11.30;87.10;;;10.64;77.80;99800.28;5028900;28;20049;-81
2021/05/13 03:59:17;;;;;;;14.98;11.27;;;11.30;87.30;;;10.65;77.87;99795.66;5031359;28;20037;-81
2021/05/13 04:02:05;;;;;;;13.52;11.15;;;11.30;87.30;;;10.63;77.91;99795.84;5031106;28;20053;-82
2021/05/13 04:04:42;;;;;;;13.55;10.32;;;11.20;87.20;;;10.61;77.81;99789.78;5031138;28;20041;-82
2021/05/13 04:07:18;;;;;;;12.57;10.18;;;11.20;87.20;;;10.60;77.69;99798.16;5027804;28;20045;-81
2021/05/13 04:09:55;;;;;;;17.13;10.27;;;11.20;87.30;;;10.60;77.86;99792.69;5009740;28;20137;-81
2021/05/13 04:12:34;;;;;;;12.25;9.57;;;11.20;87.20;;;10.58;77.77;99795.63;5011182;28;20517;-81
2021/05/13 04:15:12;;;;;;;14.63;10.13;;;11.20;87.20;;;10.57;77.84;99793.97;5010264;28;20057;-81
2021/05/13 04:17:47;;;;;;;13.00;9.40;;;11.20;87.40;;;10.55;77.63;99787.88;5011095;28;20042;-81
2021/05/13 04:20:22;;;;;;;12.18;9.23;;;11.20;87.20;;;10.54;77.64;99791.63;5011197;28;20092;-82
2021/05/13 04:23:00;;;;;;;11.70;9.00;;;11.10;87.20;;;10.52;77.89;99791.81;5010950;28;20042;-82
2021/05/13 04:25:36;;;;;;;12.13;8.88;;;11.10;87.40;;;10.53;78.00;99788.06;5011093;28;20053;-81
2021/05/13 04:28:11;;;;;;;12.52;9.32;;;11.10;87.60;;;10.51;78.13;99782.00;5011103;28;20449;-81
2021/05/13 04:30:46;;;;;;;13.48;9.38;;;11.10;87.70;;;10.53;78.31;99790.78;5010969;28;20077;-82
2021/05/13 04:33:24;;;;;;;15.75;9.65;;;11.10;87.70;;;10.52;78.37;99783.66;5010796;28;20033;-81
2021/05/13 04:36:02;;;;;;;12.30;10.02;;;11.20;87.90;;;10.53;78.56;99788.06;4993119;28;20116;-82
2021/05/13 04:38:37;;;;;;;12.75;9.00;;;11.20;88.00;;;10.56;78.73;99776.78;5010783;28;20061;-82
2021/05/13 04:41:13;;;;;;;10.98;8.88;;;11.20;88.30;;;10.61;79.04;99780.78;4992748;28;20485;-82
2021/05/13 04:43:52;;;;;;;11.00;8.98;;;11.20;88.40;;;10.61;79.32;99788.94;4992700;28;20077;-82
2021/05/13 04:46:33;;;;;;;12.30;8.65;;;11.20;88.50;;;10.64;79.72;99783.94;5010953;28;20054;-82
2021/05/13 04:49:16;;;;;;;15.30;9.80;;;11.30;88.90;;;10.70;80.02;99779.53;4979347;28;20084;-81
2021/05/13 04:51:56;;;;;;;14.55;9.00;;;11.30;89.10;;;10.73;79.85;99777.25;5010456;28;20176;-82
2021/05/13 04:54:34;;;;;;;13.27;8.75;;;11.40;89.20;;;10.75;80.01;99786.06;5010695;28;20065;-81
2021/05/13 04:57:13;;;;;;;13.32;10.35;;;11.40;89.20;;;10.81;79.75;99778.13;4992937;28;20461;-83
2021/05/13 04:59:51;;;;;;;14.57;10.85;;;11.40;89.10;;;10.80;79.68;99780.03;5010698;28;20414;-83
2021/05/13 05:02:33;;;;;;;13.05;10.85;;;11.50;89.10;;;10.86;79.74;99781.91;5010433;28;20054;-83
2021/05/13 05:05:09;;;;;;;15.55;11.95;;;11.60;89.20;;;10.91;79.50;99776.69;5010768;28;20050;-83
2021/05/13 05:07:53;;;;;;;16.15;11.30;;;11.60;89.30;;;10.92;79.85;99772.09;5010656;28;20054;-82
2021/05/13 05:10:28;;;;;;;14.68;11.52;;;11.60;89.30;;;10.94;80.12;99765.38;4992720;28;20062;-82
2021/05/13 05:13:04;;;;;;;15.55;11.40;;;11.60;89.40;;;10.99;80.41;99766.69;5010312;28;20053;-83
2021/05/13 05:15:41;;;;;;;15.85;12.25;;;11.70;89.70;;;11.05;80.28;99760.41;5010178;28;20054;-82
2021/05/13 05:18:27;;;;;;;17.95;13.27;;;11.70;89.90;;;11.11;80.62;99767.75;5010053;28;20056;-82
2021/05/13 05:21:08;;;;;;;20.08;13.57;;;11.80;89.80;;;11.15;80.63;99763.53;5010258;28;20491;-81
2021/05/13 05:23:46;;;;;;;20.02;14.05;;;11.80;90.00;;;11.22;80.96;99758.13;5009999;28;20061;-83
2021/05/13 05:26:24;;;;;;;18.10;13.60;;;11.90;90.20;;;11.29;80.70;99759.81;5010302;28;20073;-82
2021/05/13 05:29:02;;;;;;;17.98;13.68;;;12.00;90.00;;;11.32;80.93;99753.94;5009942;28;20088;-81
2021/05/13 05:31:40;;;;;;;17.63;13.25;;;12.00;90.20;;;11.37;80.98;99744.31;5010742;28;20461;-86
2021/05/13 05:34:19;;;;;;;17.45;13.32;;;12.10;90.20;;;11.44;81.48;99761.47;5010210;28;20446;-84
2021/05/13 05:36:57;;;;;;;19.15;13.02;;;12.10;90.10;;;11.48;81.19;99749.97;5010217;28;20418;-84
2021/05/13 05:39:35;;;;;;;18.90;13.82;;;12.20;90.00;;;11.57;81.20;99747.84;5010045;28;20498;-81
2021/05/13 05:42:13;;;;;;;18.30;13.88;;;12.30;90.10;;;11.73;81.02;99749.34;5009529;28;20050;-81
2021/05/13 05:44:51;;;;;;;19.13;13.43;;;12.30;90.20;;;11.81;80.82;99745.56;5009783;28;20475;-83
2021/05/13 05:47:29;;;;;;;17.88;13.32;;;12.40;89.90;;;11.92;80.78;99747.66;5009534;28;20069;-82
2021/05/13 05:50:10;;;;;;;19.05;13.75;;;12.50;89.90;;;12.06;80.88;99752.03;5009411;28;20045;-82
2021/05/13 05:52:48;;;;;;;17.90;13.23;;;12.60;89.60;;;12.22;80.01;99752.63;5009444;28;20056;-82
2021/05/13 05:55:27;;;;;;;18.67;12.93;;;12.80;89.40;;;12.47;79.19;99742.69;5009552;28;20050;-83
2021/05/13 05:58:07;;;;;;;15.25;12.15;;;12.90;89.10;;;12.70;78.94;99744.88;5007975;28;20434;-82
2021/05/13 06:00:45;;;;;;;18.52;12.90;;;13.10;88.70;;;12.87;78.52;99744.34;5009466;28;20050;-82
2021/05/13 06:03:25;;;;;;;15.13;12.10;;;13.30;88.40;;;13.04;78.55;99734.63;5009318;28;20042;-82
2021/05/13 06:06:03;;;;;;;18.30;12.50;;;13.50;87.80;;;13.19;77.91;99736.19;5010909;28;20045;-82
2021/05/13 06:08:47;;;;;;;16.67;12.02;;;13.70;87.30;;;13.32;77.49;99732.56;5010487;28;20069;-82
2021/05/13 06:11:28;;;;;;;14.68;10.85;;;13.90;86.70;;;13.37;77.24;99727.28;5011031;28;20053;-83
2021/05/13 06:14:08;;;;;;;14.77;11.05;;;14.10;86.30;;;13.43;77.19;99726.38;5027611;28;20462;-82
2021/05/13 06:16:43;;;;;;;15.13;11.55;;;14.30;85.60;;;13.43;76.83;99720.91;5029887;28;20103;-82
2021/05/13 06:19:20;;;;;;;17.98;12.57;;;14.30;85.20;;;13.44;76.70;99719.81;5029287;28;20049;-83
2021/05/13 06:21:59;;;;;;;18.23;12.50;;;14.40;85.10;;;13.43;77.22;99718.16;5029839;28;20056;-82
2021/05/13 06:24:39;;;;;;;22.08;13.73;;;14.40;85.10;;;13.45;77.76;99718.78;5030212;28;20049;-82
2021/05/13 06:27:14;;;;;;;21.50;14.77;;;14.40;85.30;;;13.50;79.34;99716.22;5030538;28;20049;-82
2021/05/13 06:29:57;;;;;;;21.65;15.20;;;14.50;87.10;;;13.54;79.09;99714.72;5030562;28;20049;-82
2021/05/13 06:32:37;;;;;;;20.27;15.20;;;14.50;86.40;;;13.58;79.11;99712.38;5029656;28;20068;-81
2021/05/13 06:35:14;;;;;;;23.20;16.48;;;14.60;86.30;;;13.60;78.79;99712.97;5029788;28;20076;-81
2021/05/13 06:38:02;;;;;;;23.10;16.60;;;14.60;85.80;;;13.62;78.47;99714.41;5029257;28;20049;-84
2021/05/13 06:40:40;;;;;;;21.77;16.55;;;14.70;86.00;;;13.62;78.34;99705.38;5029999;28;20460;-82
2021/05/13 06:43:15;;;;;;;23.15;17.27;;;14.60;85.40;;;13.65;78.59;99707.66;5029284;28;20046;-84
2021/05/13 06:45:56;;;;;;;26.88;18.10;;;14.70;85.80;;;13.66;78.65;99715.63;5030193;28;20049;-85
2021/05/13 06:48:29;;;;;;;29.15;19.45;;;14.70;85.90;;;13.71;79.08;99712.25;5030907;28;20452;-87
2021/05/13 06:51:08;;;;;;;26.52;19.33;;;14.80;86.10;;;13.74;78.56;99710.94;5030705;28;20053;-86
2021/05/13 06:53:45;;;;;;;26.50;17.85;;;14.80;85.40;;;13.77;79.35;99702.31;5028390;28;20045;-84
2021/05/13 06:56:24;;;;;;;25.98;18.92;;;14.90;86.30;;;13.82;80.17;99702.44;5009906;28;20053;-85
2021/05/13 06:59:02;;;;;;;25.05;17.13;;;15.00;86.70;;;13.89;80.23;99703.22;5023592;28;20053;-84
2021/05/13 07:01:40;;;;;;;24.15;15.88;;;15.10;86.90;;;13.93;80.15;99701.69;5025681;28;20502;-85
2021/05/13 07:04:18;;;;;;;21.85;14.90;;;15.20;86.50;;;14.03;81.67;99698.44;5010179;28;20117;-84
2021/05/13 07:06:53;;;;;;;18.15;13.57;;;15.40;87.80;;;14.11;81.63;99700.03;5010130;28;20084;-84
2021/05/13 07:09:30;;;;;;;20.08;13.68;;;15.50;87.00;;;14.19;82.32;99691.53;5010125;28;20076;-83
2021/05/13 07:12:23;;;;;;;24.75;14.90;;;15.60;86.80;;;14.25;81.29;99699.66;5007784;28;20477;-82
2021/05/13 07:15:02;;;;;;;18.02;14.23;;;15.70;86.40;;;14.30;81.12;99698.13;5003671;28;20434;-80
2021/05/13 07:17:40;;;;;;;18.52;14.30;;;15.80;85.90;;;14.29;80.61;99697.28;5027544;23;20021;-81
2021/05/13 07:20:21;;;;;;;19.00;13.10;;;15.80;85.60;;;14.33;80.66;99698.50;5048449;28;20049;-82
2021/05/13 07:22:53;;;;;;;19.65;13.82;;;15.90;85.10;;;14.41;81.23;99705.56;5047604;28;20041;-88
2021/05/13 07:25:29;;;;;;;21.38;14.35;;;15.90;85.70;;;14.46;80.98;99697.50;5048429;28;20440;-90
2021/05/13 07:28:09;;;;;;;19.58;14.38;;;16.00;85.10;;;14.50;80.08;99703.38;5041538;28;20060;-86
2021/05/13 07:30:47;;;;;;;19.95;14.50;;;16.00;84.50;;;14.56;82.32;99705.16;5035719;28;20041;-87
2021/05/13 07:33:22;;;;;;;17.40;13.02;;;16.10;86.20;;;14.61;79.60;99706.19;5035726;28;20044;-86
2021/05/13 07:36:00;;;;;;;17.73;11.65;;;16.20;83.70;;;14.63;78.41;99703.22;5027994;28;20046;-86
2021/05/13 07:38:38;;;;;;;15.52;10.10;;;16.20;83.30;;;14.66;77.44;99697.28;5047662;28;20071;-86
2021/05/13 07:41:24;;;;;;;14.70;8.95;;;16.30;82.00;;;14.68;77.13;99705.25;5029912;28;20460;-87
2021/05/13 07:43:57;;;;;;;14.85;8.75;;;16.30;81.80;;;14.70;77.42;99701.25;5029510;28;20049;-86
2021/05/13 07:46:42;;;;;;;14.15;9.90;;;16.30;82.00;;;14.76;78.54;99697.56;5047648;28;20120;-86
2021/05/13 07:49:17;;;;;;;14.32;9.35;;;16.30;83.10;;;14.78;77.70;99695.41;5048549;28;20500;-87
2021/05/13 07:51:57;;;;;;;15.38;10.38;;;16.40;81.50;;;14.83;76.70;99694.72;5051389;28;20037;-87
2021/05/13 07:54:36;;;;;;;14.82;9.60;;;16.40;81.70;;;14.82;75.88;99699.38;5026386;28;20516;-86
2021/05/13 07:57:15;;;;;;;13.45;10.10;;;16.40;80.50;;;14.83;76.15;99695.56;5031536;28;20049;-86
2021/05/13 07:59:50;;;;;;;13.95;9.10;;;16.40;80.90;;;14.84;75.29;99694.47;5031505;28;20037;-86
2021/05/13 08:02:25;;;;;;;13.98;8.85;;;16.50;80.20;;;14.88;76.39;99699.50;5031267;28;20424;-86
2021/05/13 08:05:03;;;;;;;13.40;8.15;;;16.50;80.60;;;14.91;74.88;99688.94;5031403;28;20042;-86
2021/05/13 08:07:39;;;;;;;13.00;8.52;;;16.50;79.80;;;14.96;75.12;99693.69;5013474;28;20670;-86
2021/05/13 08:10:15;;;;;;;13.10;8.52;;;16.60;79.70;;;14.97;76.30;99693.47;5031199;28;20111;-86
2021/05/13 08:12:57;;;;;;;16.90;8.18;;;16.60;80.10;;;15.05;76.30;99689.56;5012842;28;20538;-87
2021/05/13 08:15:35;;;;;;;11.55;8.40;;;16.70;80.70;;;15.08;75.39;99694.56;5031068;28;20749;-86
2021/05/13 08:18:10;;;;;;;10.63;8.18;;;16.70;80.10;;;15.08;74.85;99694.56;5012953;28;20115;-87
2021/05/13 08:20:51;;;;;;;12.02;7.93;;;16.70;79.40;;;15.14;76.47;99688.16;5047729;28;20053;-86
2021/05/13 08:23:27;;;;;;;;;;;16.80;80.10;;;15.19;74.82;99687.44;5051268;28;20047;-87
2021/05/13 08:26:04;;;;;;;15.00;7.90;;;16.80;79.20;;;15.21;75.80;99688.88;5051135;28;19925;-86
2021/05/13 08:28:48;;;;;;;11.10;8.50;;;16.80;79.70;;;15.28;75.89;99685.19;5050773;28;20387;-86
2021/05/13 08:31:26;;;;;;;12.40;8.63;;;16.90;79.90;;;15.21;73.82;99682.53;5050805;28;20045;-86
2021/05/13 08:34:10;;;;;;;15.10;7.80;;;16.90;77.70;;;15.23;75.07;99691.38;5050536;28;20045;-87
2021/05/13 08:36:45;;;;;;;13.38;8.30;;;16.90;78.10;;;15.35;74.99;99686.75;5050711;28;20110;-87
2021/05/13 08:39:25;;;;;;;10.88;7.90;;;17.00;78.80;;;15.32;73.63;99678.16;5050654;28;20049;-86
2021/05/13 08:42:00;;;;;;;10.45;7.55;;;17.00;77.50;;;15.41;73.93;99683.06;5050512;28;20416;-86
2021/05/13 08:44:39;;;;;;;11.85;7.75;;;17.00;77.90;;;15.48;72.58;99685.69;5050366;28;20045;-86
2021/05/13 08:47:15;;;;;;;12.95;7.90;;;17.10;76.90;;;15.49;73.89;99678.28;5050440;28;20064;-87
2021/05/13 08:49:53;;;;;;;12.68;8.43;;;17.10;77.80;;;15.61;74.72;99681.88;5050402;28;20044;-86
2021/05/13 08:52:31;;;;;;;13.00;7.88;;;17.20;78.90;;;15.57;72.06;99676.06;5050081;28;20052;-87
2021/05/13 08:55:12;;;;;;;14.30;8.30;;;17.20;76.00;;;15.64;73.02;99682.22;5050169;28;20044;-86
2021/05/13 08:57:49;;;;;;;12.25;8.35;;;17.30;77.70;;;15.60;71.90;99678.28;5050141;28;20053;-87
2021/05/13 09:00:36;;;;;;;11.68;7.53;;;17.30;76.30;;;15.59;71.91;99673.03;5031864;28;20475;-86
2021/05/13 09:03:12;;;;;;;10.68;7.03;;;17.30;76.00;;;15.56;71.19;99663.41;5049853;28;20111;-87
2021/05/13 09:05:56;;;;;;;14.77;6.93;;;17.30;74.90;;;15.70;74.64;99660.41;5050212;28;20497;-87
2021/05/13 09:08:33;;;;;;;11.82;7.38;;;17.30;77.80;;;15.74;72.00;99670.69;5031923;28;20053;-87
2021/05/13 09:11:19;;;;;;;11.23;6.75;;;17.40;75.90;;;15.76;72.18;99660.34;5050201;28;20496;-87
2021/05/13 09:14:09;;;;;;;12.70;7.10;;;17.40;75.20;;;15.76;70.41;99662.22;5049833;28;20090;-87
2021/05/13 09:16:49;;;;;;;11.60;6.80;;;17.40;74.10;;;15.73;70.36;99657.19;5050308;28;20056;-85
2021/05/13 09:19:34;;;;;;;10.75;6.55;;;17.40;74.60;;;15.67;70.22;99655.38;5033201;28;20059;-86
2021/05/13 09:22:15;;;;;;;13.10;6.63;;;17.40;74.10;;;15.76;71.73;99656.72;5049654;28;20044;-77
2021/05/13 09:24:59;;;;;;;13.02;6.03;;;17.40;74.80;;;15.88;70.09;99653.97;5031501;28;20048;-78
2021/05/13 09:27:44;;;;;;;11.07;5.20;;;17.50;74.60;;;15.87;69.24;99661.38;5049698;28;20544;-78
2021/05/13 09:30:29;;;;;;;11.43;5.20;;;17.50;73.10;;;15.94;65.67;99653.84;5049570;28;20508;-84
2021/05/13 09:33:15;;;;;;;8.10;5.00;;;17.60;71.30;;;16.05;68.79;99643.09;5038673;28;20128;-83
2021/05/13 09:35:53;;;;;;;7.85;4.18;;;17.60;72.40;;;16.13;66.91;99646.28;5011805;28;20453;-82
2021/05/13 09:38:40;;;;;;;9.15;5.35;;;17.70;71.70;;;16.16;69.09;99639.47;5029504;28;20045;-82
2021/05/13 09:41:29;;;;;;;9.95;5.50;;;17.80;73.00;;;16.23;66.97;99640.19;5029235;28;20049;-83
2021/05/13 09:44:04;;;;;;;8.57;4.70;;;17.90;71.60;;;16.28;65.46;99642.19;5029302;28;20111;-83
2021/05/13 09:46:45;;;;;;;9.20;4.45;;;17.90;69.60;;;16.25;65.57;99649.00;5029448;28;20041;-83
2021/05/13 09:49:28;;;;;;;7.57;3.08;;;17.90;70.20;;;16.20;65.16;99646.16;5029401;28;20053;-83
2021/05/13 09:52:06;;;;;;;5.05;2.47;;;17.90;70.50;;;16.16;62.60;99645.81;5011009;28;20053;-83
2021/05/13 09:54:44;;;;;;;8.63;2.78;;;17.90;67.20;;;16.17;61.44;99636.50;5029359;28;20185;-84
2021/05/13 09:57:37;;;;;;;10.30;5.25;;;17.90;65.60;;;16.18;61.83;99642.81;5011229;28;20422;-83
2021/05/13 10:00:32;;;;;;;8.68;5.07;;;17.80;66.00;;;16.27;62.15;99646.84;5029108;28;20046;-83
2021/05/13 10:03:19;;;;;;;10.50;5.15;;;17.90;67.20;;;16.34;64.74;99636.56;5028731;28;20045;-83
2021/05/13 10:05:59;;;;;;;10.05;4.57;;;18.00;69.10;;;16.38;64.64;99640.47;5028756;28;20038;-83
2021/05/13 10:08:34;;;;;;;8.15;4.40;;;18.00;69.10;;;16.47;63.75;99637.34;5029137;28;20665;-80
2021/05/13 10:11:11;;;;;;;9.80;4.20;;;18.10;68.20;;;16.54;62.55;99627.03;5028643;28;20521;-82
2021/05/13 10:13:47;;;;;;;11.90;4.15;;;18.20;67.50;;;16.58;60.09;99636.47;5028364;28;20460;-82
2021/05/13 10:16:20;;;;;;;9.45;3.30;;;18.20;64.00;;;16.46;56.72;99630.19;5045860;28;20098;-82
2021/05/13 10:19:09;;;;;;;8.35;3.08;;;18.20;60.90;;;16.37;59.62;99636.09;5048666;28;20098;-82
2021/05/13 10:21:50;;;;;;;8.55;3.00;;;18.10;63.50;;;16.29;60.27;99628.22;5048796;28;20041;-82
2021/05/13 10:24:28;;;;;;;11.10;3.05;;;18.00;61.90;;;16.24;56.15;99625.38;5048696;28;20044;-82
2021/05/13 10:27:17;;;;;;;6.43;3.10;;;17.90;60.20;;;16.22;57.37;99611.03;5048723;28;20049;-82
2021/05/13 10:30:02;;;;;;;7.22;2.70;;;17.90;61.30;;;16.29;57.99;99619.97;5048959;28;20056;-82
2021/05/13 10:32:44;;;;;;;7.40;2.47;;;17.90;61.70;;;16.32;57.70;99614.00;5048399;28;20110;-77
2021/05/13 10:35:23;;;;;;;9.18;3.10;;;18.00;61.10;;;16.35;58.32;99616.25;5048436;28;20049;-76
2021/05/13 10:38:12;;;;;;;8.02;2.45;;;18.00;61.30;;;16.34;54.66;99613.78;5048458;28;20075;-76
2021/05/13 10:41:03;;;;;;;6.97;2.10;;;18.00;59.00;;;16.34;54.62;99606.34;5048431;28;20064;-76
2021/05/13 10:43:41;;;;;;;6.18;2.00;;;17.90;59.70;;;16.35;52.17;99599.78;5046718;28;20033;-78
2021/05/13 10:46:32;;;;;;;5.95;2.00;;;17.90;56.50;;;16.40;52.81;99588.91;5034752;28;20040;-77
2021/05/13 10:49:23;;;;;;;5.82;1.70;;;18.00;57.80;;;16.59;57.23;99591.44;5015793;28;20107;-77
2021/05/13 10:52:24;;;;;;;8.40;1.50;;;18.10;61.10;;;16.62;54.52;99593.69;5028148;28;20091;-77
2021/05/13 10:55:06;;;;;;;6.88;2.45;;;18.20;59.00;;;16.79;55.64;99594.56;5028353;28;20050;-77
2021/05/13 10:57:57;;;;;;;4.50;1.50;;;18.30;60.10;;;16.88;52.95;99594.16;5028571;28;20057;-77
2021/05/13 11:00:38;;;;;;;6.75;1.90;;;18.40;57.40;;;16.91;50.68;99593.69;5028516;28;20061;-77
2021/05/13 11:03:26;;;;;;;6.35;1.80;;;18.40;56.80;;;16.91;49.83;99591.75;5028304;28;20044;-77